メインページ
METAR-TAF:

METAR-TAF

空港 :

ブジュンブラ国際空港

ブジュンブラ, ブルンジ

緯度: 03-19S, 経度: 029-19E, 海抜: 782m

現時点の気象観測

当レポートは1時間16分前の14:00(UTC)に作成
の風 6kt
気温 29°C
湿度 45%
気圧 1014 hPa
視程: 8000m
高度3000ftの雲はほとんどない

METAR: HBBA 121400Z 18006KT 8000 FEW030 29/16 Q1014 NOSIG

時間: 17:16 (15:16 UTC)

予報

当レポートは4時間16分前の11:00(UTC)に作成
予報は12日の 12時(UTC)から 13日の 18時(UTC)まで有効
の風 10kt、最大22ktの突風を伴う
視程10km以上
高度2800ftの雲はほとんどない
12日の 18時(UTC)から 12日の 20時(UTC)まで徐々に
の風 3kt
視程10km以上
1,500メートル以下は雲なし、積乱雲なし
13日の 08時(UTC)から 13日の 10時(UTC)まで徐々に
の風 10kt、最大24ktの突風を伴う
視程10km以上
高度3000ftの雲はほとんどない

TAF: HBBA 121100Z 1212/1318 18010G22KT 9999 FEW028 BECMG 1218/1220 36003KT CAVOK BECMG 1308/1310 18010G24KT 9999 FEW030

4,000以上の空港の気象観測と天気予報(METAR報とTAF報)

利用可能な観測所は地図上に黄色い丸と赤い丸で示す。

丸の上にカーソルを重ねると観測所名を参照できる。

次にクリックすると気象観測と天気予報を参照できる。

マップの切り替え:黒色「×」印の緑ボタンをクリックして拡大、「-」印の緑ボタンをクリックして縮小、緑色の三角印をクリックして隣りの地図に切り替え


METAR-TAF: